Time;durP1;ratioP1;P1;durP2;ratioP2;P2;SDS_P1;SDS_P2;PMS_P1;PMS_P2;Temp;Humidity;BMP_temperature;BMP_pressure;BME280_temperature;BME280_humidity;BME280_pressure;Samples;Min_cycle;Max_cycle;Signal;HPM_P1;HPM_P2
2022/04/23 00:00:20;;;;;;;17.88;15.38;;;;;;;12.10;54.92;98508.03;1084053;54;20038;-76
2022/04/23 00:01:22;;;;;;;15.48;13.65;;;;;;;12.14;55.00;98509.31;1084030;54;20041;-76
2022/04/23 00:02:28;;;;;;;17.00;14.07;;;;;;;12.19;54.94;98514.09;1086593;54;20031;-78
2022/04/23 00:03:30;;;;;;;16.80;14.40;;;;;;;12.17;55.01;98511.63;1086871;46;20030;-77
2022/04/23 00:04:34;;;;;;;17.25;14.93;;;;;;;12.12;54.85;98514.03;1086570;47;20054;-77
2022/04/23 00:05:38;;;;;;;16.30;13.30;;;;;;;12.15;54.84;98508.31;1088080;46;20039;-76
2022/04/23 00:06:43;;;;;;;14.75;12.55;;;;;;;12.19;54.72;98504.22;1088016;46;20059;-77
2022/04/23 00:07:45;;;;;;;16.58;12.55;;;;;;;12.17;54.80;98509.78;1088338;46;20094;-77
2022/04/23 00:08:49;;;;;;;17.90;14.48;;;;;;;12.14;55.11;98509.31;1087060;54;20034;-78
2022/04/23 00:09:52;;;;;;;18.00;14.30;;;;;;;12.11;55.20;98504.34;1085668;54;20056;-77
2022/04/23 00:10:56;;;;;;;16.58;14.52;;;;;;;12.05;55.41;98502.44;1085387;54;20039;-77
2022/04/23 00:11:58;;;;;;;17.10;14.23;;;;;;;12.10;54.93;98508.03;1086959;39;20136;-77
2022/04/23 00:13:03;;;;;;;18.63;14.75;;;;;;;11.96;55.67;98510.59;1086265;54;20057;-77
2022/04/23 00:14:07;;;;;;;15.80;12.35;;;;;;;12.04;55.57;98503.47;1086454;54;20022;-78
2022/04/23 00:15:12;;;;;;;15.45;13.65;;;;;;;11.98;55.63;98497.88;1086350;54;20065;-76
2022/04/23 00:16:15;;;;;;;15.55;13.90;;;;;;;11.97;55.39;98501.56;1086189;54;20038;-77
2022/04/23 00:17:19;;;;;;;15.55;13.73;;;;;;;11.96;55.66;98507.91;1086365;46;20058;-77
2022/04/23 00:18:23;;;;;;;16.70;14.45;;;;;;;11.84;56.27;98512.09;1086527;46;20053;-77
2022/04/23 00:19:27;;;;;;;16.52;14.15;;;;;;;11.86;56.01;98500.16;1086928;54;20065;-78
2022/04/23 00:20:30;;;;;;;16.58;13.32;;;;;;;11.93;55.67;98505.59;1086840;54;20045;-76
2022/04/23 00:21:37;;;;;;;15.52;13.85;;;;;;;11.93;55.76;98502.91;1086759;54;20050;-77
2022/04/23 00:22:40;;;;;;;15.57;13.43;;;;;;;11.97;55.66;98506.03;1086715;54;20027;-78
2022/04/23 00:23:45;;;;;;;14.77;12.80;;;;;;;11.97;55.79;98506.03;1086767;54;20091;-77
2022/04/23 00:24:46;;;;;;;14.55;12.98;;;;;;;11.88;56.13;98509.88;1086789;54;20039;-77
2022/04/23 00:25:52;;;;;;;15.10;13.50;;;;;;;11.85;56.19;98509.22;1086858;54;20038;-77
2022/04/23 00:26:53;;;;;;;16.17;14.30;;;;;;;11.83;56.29;98507.75;1086611;54;20052;-77
2022/04/23 00:27:57;;;;;;;15.25;13.57;;;;;;;11.88;56.33;98507.19;1088517;46;20045;-77
2022/04/23 00:28:59;;;;;;;15.80;13.10;;;;;;;11.92;56.04;98505.81;1086702;46;20053;-77
2022/04/23 00:30:03;;;;;;;15.02;13.05;;;;;;;11.95;56.01;98502.75;1085466;54;20601;-77
2022/04/23 00:31:05;;;;;;;14.52;13.00;;;;;;;11.93;55.75;98502.91;1085619;54;20046;-77
2022/04/23 00:32:11;;;;;;;14.65;11.77;;;;;;;11.98;55.76;98503.22;1085924;54;20037;-76
2022/04/23 00:33:13;;;;;;;13.52;11.40;;;;;;;12.02;55.59;98499.13;1085471;46;20038;-77
2022/04/23 00:34:17;;;;;;;14.73;12.02;;;;;;;12.02;55.73;98498.31;1084677;54;20128;-77
2022/04/23 00:35:19;;;;;;;13.55;11.85;;;;;;;12.01;55.81;98508.19;1084905;54;20063;-77
2022/04/23 00:36:26;;;;;;;13.68;12.27;;;;;;;12.03;55.98;98510.69;1085670;54;20038;-77
2022/04/23 00:37:31;;;;;;;13.90;12.18;;;;;;;12.02;55.69;98504.47;1086323;54;20038;-78
2022/04/23 00:38:36;;;;;;;14.30;11.73;;;;;;;12.01;55.62;98515.41;1086372;54;20043;-78
2022/04/23 00:39:37;;;;;;;15.73;13.18;;;;;;;11.93;56.30;98510.13;1085921;54;20147;-78
2022/04/23 00:40:43;;;;;;;15.77;14.07;;;;;;;11.83;56.75;98505.09;1085491;54;20034;-77
2022/04/23 00:41:45;;;;;;;15.02;13.02;;;;;;;11.79;57.01;98510.00;1085514;54;20034;-77
2022/04/23 00:42:52;;;;;;;15.68;13.30;;;;;;;11.77;56.95;98508.53;1087143;39;20678;-78
2022/04/23 00:43:53;;;;;;;14.27;12.45;;;;;;;11.76;56.90;98509.56;1084921;54;20042;-77
2022/04/23 00:44:58;;;;;;;15.43;13.15;;;;;;;11.74;57.36;98514.25;1085576;54;20039;-77
2022/04/23 00:45:59;;;;;;;16.23;13.48;;;;;;;11.70;57.16;98514.66;1085316;54;20038;-78
2022/04/23 00:47:06;;;;;;;14.00;12.32;;;;;;;11.78;56.94;98507.53;1085864;54;20049;-78
2022/04/23 00:48:07;;;;;;;16.65;13.80;;;;;;;11.78;56.71;98512.88;1087060;47;20039;-78
2022/04/23 00:49:12;;;;;;;14.85;12.93;;;;;;;11.76;57.03;98514.91;1087464;47;20038;-78
2022/04/23 00:50:15;;;;;;;14.88;12.27;;;;;;;11.82;56.80;98514.97;1086729;54;20031;-77
2022/04/23 00:51:19;;;;;;;12.85;11.25;;;;;;;11.88;56.44;98518.75;1084445;54;20065;-79
2022/04/23 00:52:24;;;;;;;12.45;10.18;;;;;;;11.94;56.53;98511.81;1084627;54;20086;-78
2022/04/23 00:53:28;;;;;;;13.23;11.80;;;;;;;11.89;56.68;98514.22;1084677;39;20441;-78
2022/04/23 00:54:33;;;;;;;12.95;11.30;;;;;;;11.89;56.61;98524.91;1084670;54;20042;-78
2022/04/23 00:55:34;;;;;;;13.88;12.38;;;;;;;11.84;56.93;98528.16;1084285;54;20042;-77
2022/04/23 00:56:39;;;;;;;12.30;11.00;;;;;;;11.89;56.77;98522.25;1084195;54;20042;-77
2022/04/23 00:57:41;;;;;;;12.90;10.80;;;;;;;11.91;57.04;98534.41;1084233;54;20038;-78
2022/04/23 00:58:46;;;;;;;12.18;10.38;;;;;;;11.93;56.81;98524.34;1084296;54;20038;-78
2022/04/23 00:59:51;;;;;;;11.60;10.40;;;;;;;11.92;56.80;98530.72;1084200;54;20042;-78
2022/04/23 01:00:53;;;;;;;15.68;12.60;;;;;;;11.84;57.14;98518.31;1084407;54;20102;-77
2022/04/23 01:01:58;;;;;;;12.68;11.35;;;;;;;11.87;56.77;98522.44;1084911;54;20034;-78
2022/04/23 01:11:24;;;;;;;14.55;10.95;;;;;;;11.65;58.09;98522.41;1072301;54;19969;-81
2022/04/23 01:13:34;;;;;;;14.30;12.13;;;;;;;11.60;57.84;98527.50;1087903;54;20042;-84
2022/04/23 01:24:00;;;;;;;14.68;13.13;;;;;;;11.34;59.29;98523.47;1088042;54;20341;-78
2022/04/23 01:25:04;;;;;;;16.05;13.05;;;;;;;11.41;59.01;98518.22;1088043;54;20876;-77
2022/04/23 01:26:09;;;;;;;15.10;12.48;;;;;;;11.37;59.12;98533.81;1088060;54;20053;-78
2022/04/23 01:27:11;;;;;;;14.63;12.63;;;;;;;11.33;59.27;98518.34;1088133;54;20019;-78
2022/04/23 01:28:16;;;;;;;16.27;14.15;;;;;;;11.27;59.61;98522.56;1088099;54;20120;-78
2022/04/23 01:29:19;;;;;;;15.02;13.32;;;;;;;11.22;60.01;98519.66;1088058;54;20026;-78
2022/04/23 01:30:23;;;;;;;15.32;13.68;;;;;;;11.16;60.20;98525.72;1088110;54;20030;-78
2022/04/23 01:31:25;;;;;;;16.95;13.40;;;;;;;11.16;60.07;98528.41;1088022;54;20776;-79
2022/04/23 01:32:29;;;;;;;15.88;13.93;;;;;;;11.11;60.44;98522.78;1087746;54;20042;-78
2022/04/23 01:33:33;;;;;;;15.20;12.60;;;;;;;11.12;60.35;98519.09;1087822;54;20027;-78
2022/04/23 01:34:37;;;;;;;15.57;13.93;;;;;;;11.14;60.31;98531.25;1088083;54;20866;-78
2022/04/23 01:35:39;;;;;;;16.02;13.02;;;;;;;11.12;60.66;98527.13;1088086;54;20038;-77
2022/04/23 01:36:43;;;;;;;16.65;13.82;;;;;;;11.14;60.30;98527.78;1088047;54;20038;-77
2022/04/23 01:37:44;;;;;;;15.95;13.50;;;;;;;11.08;60.78;98527.47;1088094;54;20035;-78
2022/04/23 01:38:49;;;;;;;16.52;14.35;;;;;;;11.04;60.91;98528.03;1088048;54;20031;-77
2022/04/23 01:39:53;;;;;;;17.00;14.07;;;;;;;11.04;60.66;98526.22;1088088;54;20059;-77
2022/04/23 01:40:57;;;;;;;17.92;14.85;;;;;;;11.05;61.03;98537.72;1088004;54;20059;-77
2022/04/23 01:41:59;;;;;;;16.73;14.93;;;;;;;11.01;60.93;98526.56;1088098;54;20055;-77
2022/04/23 01:43:03;;;;;;;16.10;13.98;;;;;;;10.99;60.70;98525.91;1088054;54;20042;-77
2022/04/23 01:44:05;;;;;;;15.82;13.55;;;;;;;10.96;60.96;98523.59;1088010;54;20034;-77
2022/04/23 01:45:10;;;;;;;17.67;13.77;;;;;;;10.99;60.76;98525.91;1097200;39;20718;-78
2022/04/23 01:46:11;;;;;;;17.55;14.88;;;;;;;10.98;60.51;98513.56;1088002;54;20054;-78
2022/04/23 01:47:16;;;;;;;15.70;14.00;;;;;;;10.99;60.65;98515.22;1088047;54;20031;-78
2022/04/23 01:48:17;;;;;;;15.77;14.15;;;;;;;10.95;60.67;98515.78;1093580;39;20673;-78
2022/04/23 01:49:21;;;;;;;15.43;13.82;;;;;;;10.95;60.87;98516.63;1089998;39;21041;-79
2022/04/23 01:50:23;;;;;;;15.50;13.82;;;;;;;10.89;60.73;98515.50;1087980;54;20030;-77
2022/04/23 01:51:27;;;;;;;17.90;14.02;;;;;;;10.84;60.93;98517.06;1088061;54;20030;-77
2022/04/23 01:52:29;;;;;;;17.50;15.60;;;;;;;10.74;61.13;98518.19;1088083;54;20042;-78
2022/04/23 01:53:33;;;;;;;19.58;15.85;;;;;;;10.71;61.56;98521.22;1088509;39;20825;-78
2022/04/23 01:54:35;;;;;;;15.90;14.18;;;;;;;10.76;61.12;98510.81;1088082;54;20034;-78
2022/04/23 01:55:42;;;;;;;18.63;14.90;;;;;;;10.73;61.47;98519.19;1094056;39;20897;-78
2022/04/23 01:56:44;;;;;;;14.32;12.82;;;;;;;10.78;61.27;98524.00;1088032;54;20018;-79
2022/04/23 01:57:48;;;;;;;16.13;14.00;;;;;;;10.69;61.58;98522.41;1088055;54;20090;-78
2022/04/23 01:58:50;;;;;;;17.50;14.77;;;;;;;10.65;61.94;98516.59;1088440;54;20062;-78
2022/04/23 01:59:54;;;;;;;15.73;14.02;;;;;;;10.66;61.90;98520.94;1088443;54;20108;-78
2022/04/23 02:00:58;;;;;;;15.75;13.65;;;;;;;10.76;61.73;98518.00;1088357;54;20031;-78
2022/04/23 02:02:02;;;;;;;15.50;12.43;;;;;;;10.83;61.52;98526.09;1088266;54;20037;-78
2022/04/23 02:03:04;;;;;;;14.48;12.60;;;;;;;10.82;61.49;98519.91;1095207;39;20661;-78
2022/04/23 02:04:09;;;;;;;16.00;13.93;;;;;;;10.76;62.14;98515.31;1087968;54;20090;-78
2022/04/23 02:05:11;;;;;;;15.38;12.95;;;;;;;10.82;61.94;98514.56;1088226;54;20022;-78
2022/04/23 02:06:15;;;;;;;15.82;12.82;;;;;;;10.84;61.65;98517.91;1088061;54;20090;-78
2022/04/23 02:07:17;;;;;;;14.35;12.52;;;;;;;10.80;61.94;98518.44;1087952;54;20030;-78
2022/04/23 02:08:21;;;;;;;14.48;12.93;;;;;;;10.79;62.31;98511.44;1087948;54;20023;-77
2022/04/23 02:09:23;;;;;;;14.50;12.77;;;;;;;10.84;62.13;98515.22;1087993;54;20026;-77
2022/04/23 02:10:27;;;;;;;13.68;12.27;;;;;;;10.83;62.17;98520.75;1092896;39;20678;-78
2022/04/23 02:11:31;;;;;;;13.20;11.80;;;;;;;10.86;62.28;98520.41;1088329;54;20019;-78
2022/04/23 02:12:38;;;;;;;13.50;11.68;;;;;;;10.83;62.03;98518.09;1088362;54;20357;-78
2022/04/23 02:13:40;;;;;;;14.20;12.65;;;;;;;10.79;62.66;98522.13;1088372;54;20046;-78
2022/04/23 02:14:44;;;;;;;14.82;12.98;;;;;;;10.77;62.54;98515.13;1088352;54;20030;-77
2022/04/23 02:15:46;;;;;;;15.60;12.57;;;;;;;10.76;62.66;98520.66;1094963;39;20791;-77
2022/04/23 02:16:52;;;;;;;15.25;13.65;;;;;;;10.69;63.31;98517.88;1088322;54;20042;-78
2022/04/23 02:17:53;;;;;;;16.60;14.80;;;;;;;10.65;63.63;98521.94;1088357;54;20018;-77
2022/04/23 02:18:58;;;;;;;17.00;14.05;;;;;;;10.61;63.72;98518.81;1089796;46;20034;-78
2022/04/23 02:20:02;;;;;;;16.67;14.15;;;;;;;10.58;63.99;98518.34;1088376;54;21021;-79
2022/04/23 02:21:06;;;;;;;14.40;12.90;;;;;;;10.57;63.80;98517.50;1088321;54;20034;-77
2022/04/23 02:22:09;;;;;;;16.92;14.00;;;;;;;10.52;64.27;98519.91;1088353;54;20038;-79
2022/04/23 02:23:13;;;;;;;15.82;14.13;;;;;;;10.50;64.34;98513.91;1088077;54;20029;-78
2022/04/23 02:24:15;;;;;;;15.80;12.98;;;;;;;10.51;64.14;98517.41;1088357;54;20026;-77
2022/04/23 02:25:20;;;;;;;14.45;12.93;;;;;;;10.55;63.87;98513.38;1088306;54;20026;-77
2022/04/23 02:26:22;;;;;;;14.88;13.35;;;;;;;10.59;63.75;98509.28;1088195;54;20033;-83
2022/04/23 02:27:30;;;;;;;15.85;13.30;;;;;;;10.50;64.05;98513.91;1086042;54;20022;-84
2022/04/23 02:32:33;;;;;;;14.75;13.15;;;;;;;10.47;64.53;98508.09;1088698;54;20018;-83
2022/04/23 02:45:27;;;;;;;14.10;12.55;;;;;;;10.45;64.44;98519.78;1088074;54;20031;-84
2022/04/23 02:46:29;;;;;;;16.13;14.43;;;;;;;10.40;64.72;98524.03;1088487;54;20030;-81
2022/04/23 02:47:45;;;;;;;16.60;14.02;;;;;;;10.43;64.78;98529.00;1088538;54;20124;-82
2022/04/23 02:48:49;;;;;;;15.57;12.60;;;;;;;10.52;63.88;98519.06;1088448;54;20022;-82
2022/04/23 02:49:57;;;;;;;12.85;11.40;;;;;;;10.55;63.87;98516.03;1088504;54;20018;-82
2022/04/23 02:51:03;;;;;;;12.80;11.35;;;;;;;10.56;63.73;98525.72;1088507;54;20046;-82
2022/04/23 02:52:06;;;;;;;12.73;10.75;;;;;;;10.60;63.57;98535.00;1088440;54;20022;-81
2022/04/23 02:53:11;;;;;;;13.13;11.55;;;;;;;10.65;63.48;98534.47;1088444;54;20034;-82
2022/04/23 02:54:13;;;;;;;11.30;9.85;;;;;;;10.68;63.30;98529.59;1088406;54;20027;-82
2022/04/23 02:55:18;;;;;;;11.82;9.88;;;;;;;10.71;63.08;98539.91;1088432;54;20018;-82
2022/04/23 02:56:20;;;;;;;11.07;9.88;;;;;;;10.70;63.09;98540.94;1091002;39;20725;-81
2022/04/23 02:57:31;;;;;;;13.15;10.80;;;;;;;10.70;63.25;98543.59;1088507;54;20070;-82
2022/04/23 02:58:33;;;;;;;13.05;11.38;;;;;;;10.70;62.86;98538.25;1088424;54;20011;-82
2022/04/23 02:59:39;;;;;;;12.20;10.90;;;;;;;10.72;62.90;98546.94;1088232;54;20019;-80
2022/04/23 03:00:44;;;;;;;13.63;12.18;;;;;;;10.72;62.89;98541.59;1088003;54;21089;-79
2022/04/23 03:01:48;;;;;;;12.55;10.82;;;;;;;10.73;62.88;98540.56;1087975;54;20031;-80
2022/04/23 03:02:52;;;;;;;13.38;11.45;;;;;;;10.75;62.94;98540.38;1088089;54;20034;-79
2022/04/23 03:03:58;;;;;;;15.02;13.43;;;;;;;10.70;63.05;98538.25;1088079;54;20030;-79
2022/04/23 03:05:00;;;;;;;15.43;12.85;;;;;;;10.70;63.15;98543.59;1088102;54;20090;-78
2022/04/23 03:06:05;;;;;;;12.35;10.75;;;;;;;10.72;62.84;98540.75;1088921;39;20753;-81
2022/04/23 03:07:06;;;;;;;15.00;13.40;;;;;;;10.66;63.16;98544.16;1088324;54;20035;-80
2022/04/23 03:08:11;;;;;;;13.20;11.68;;;;;;;10.67;62.96;98541.31;1088293;54;20030;-81
2022/04/23 03:09:13;;;;;;;14.43;11.93;;;;;;;10.69;62.99;98533.91;1087942;54;20094;-80
2022/04/23 03:10:20;;;;;;;13.18;11.30;;;;;;;10.71;62.99;98541.78;1088186;54;20037;-83
2022/04/23 03:11:22;;;;;;;12.27;10.95;;;;;;;10.72;62.97;98546.13;1088145;54;20030;-83
2022/04/23 03:12:27;;;;;;;14.15;12.27;;;;;;;10.65;63.25;98535.31;1090894;31;20749;-82
2022/04/23 03:13:28;;;;;;;14.07;12.07;;;;;;;10.68;63.04;98534.94;1088854;39;20657;-81
2022/04/23 03:14:33;;;;;;;13.07;11.40;;;;;;;10.67;62.85;98533.28;1088417;54;20031;-84
2022/04/23 03:15:35;;;;;;;12.25;10.63;;;;;;;10.69;63.16;98533.09;1088443;54;20023;-82
2022/04/23 03:16:42;;;;;;;12.73;11.40;;;;;;;10.68;63.08;98545.63;1088398;54;20058;-82
2022/04/23 03:17:45;;;;;;;11.88;10.05;;;;;;;10.72;63.17;98538.09;1088662;54;20023;-83
2022/04/23 03:18:51;;;;;;;11.32;9.77;;;;;;;10.75;62.81;98543.06;1110121;39;20520;-82
2022/04/23 03:19:53;;;;;;;11.73;10.52;;;;;;;10.76;62.72;98542.88;1088562;54;20031;-83
2022/04/23 03:20:59;;;;;;;10.70;9.48;;;;;;;10.83;62.71;98547.50;1088629;54;20022;-82
2022/04/23 03:22:01;;;;;;;12.65;10.05;;;;;;;10.77;62.83;98546.38;1090213;46;20075;-83
2022/04/23 03:23:15;;;;;;;12.80;11.15;;;;;;;10.66;63.71;98545.00;1110565;39;20566;-82
2022/04/23 03:24:19;;;;;;;15.98;12.38;;;;;;;10.63;63.53;98541.84;1088476;54;20049;-82
2022/04/23 03:25:29;;;;;;;15.18;11.93;;;;;;;10.52;64.45;98546.63;1088545;54;20124;-83
2022/04/23 03:26:31;;;;;;;13.88;12.48;;;;;;;10.44;64.41;98547.53;1088566;54;20029;-83
2022/04/23 03:27:38;;;;;;;13.88;12.40;;;;;;;10.40;64.84;98548.88;1093668;39;20578;-80
2022/04/23 03:28:40;;;;;;;15.10;12.15;;;;;;;10.38;64.81;98544.72;1088567;54;20074;-82
2022/04/23 03:29:47;;;;;;;12.35;10.93;;;;;;;10.35;65.31;98545.91;1088618;54;20022;-82
2022/04/23 03:30:52;;;;;;;14.75;13.25;;;;;;;10.24;65.97;98549.00;1089336;46;20018;-81
2022/04/23 03:31:59;;;;;;;14.98;13.48;;;;;;;10.26;65.58;98541.63;1088569;54;20756;-82
2022/04/23 03:33:01;;;;;;;13.50;11.45;;;;;;;10.28;65.35;98543.13;1088496;54;20026;-82
2022/04/23 03:34:07;;;;;;;13.07;11.68;;;;;;;10.22;65.85;98543.84;1088528;54;20046;-81
2022/04/23 03:35:09;;;;;;;16.25;13.02;;;;;;;10.17;66.21;98543.53;1088450;54;20030;-85
2022/04/23 03:36:14;;;;;;;12.43;11.13;;;;;;;10.20;65.99;98545.03;1088594;54;20022;-84
2022/04/23 03:37:22;;;;;;;14.20;11.73;;;;;;;10.23;65.75;98550.84;1088604;54;20019;-82
2022/04/23 03:38:26;;;;;;;11.68;10.40;;;;;;;10.28;65.64;98556.47;1088595;54;20024;-81
2022/04/23 03:39:34;;;;;;;12.38;10.20;;;;;;;10.32;65.64;98548.91;1094061;39;20591;-81
2022/04/23 03:40:39;;;;;;;12.05;10.55;;;;;;;10.37;65.29;98553.72;1088620;54;20018;-81
2022/04/23 03:41:49;;;;;;;12.20;10.90;;;;;;;10.37;65.47;98554.59;1088570;54;20030;-82
2022/04/23 03:42:54;;;;;;;11.18;9.93;;;;;;;10.42;65.26;98562.91;1089058;39;20661;-81
2022/04/23 03:43:59;;;;;;;10.68;9.43;;;;;;;10.45;64.90;98551.84;1088616;54;20019;-82
2022/04/23 03:45:04;;;;;;;11.10;9.88;;;;;;;10.44;65.09;98557.34;1095845;39;20742;-80
2022/04/23 03:46:08;;;;;;;12.10;10.40;;;;;;;10.42;65.19;98559.41;1088169;39;21156;-82
2022/04/23 03:47:13;;;;;;;10.30;9.20;;;;;;;10.49;64.97;98549.66;1088589;54;20018;-83
2022/04/23 03:48:17;;;;;;;11.23;10.02;;;;;;;10.49;64.93;98556.81;1088501;54;20022;-82
2022/04/23 03:49:22;;;;;;;9.32;8.18;;;;;;;10.56;64.58;98552.44;1088549;54;20023;-81
2022/04/23 03:50:29;;;;;;;14.02;11.45;;;;;;;10.42;65.70;98557.56;1088404;54;20026;-81
2022/04/23 03:51:31;;;;;;;12.25;10.77;;;;;;;10.46;65.27;98558.03;1088373;54;20054;-82
2022/04/23 03:52:36;;;;;;;12.50;11.15;;;;;;;10.36;65.72;98558.25;1088423;54;20019;-80
2022/04/23 03:53:40;;;;;;;12.20;10.90;;;;;;;10.28;66.15;98556.47;1088496;54;20047;-80
2022/04/23 03:54:50;;;;;;;13.00;11.10;;;;;;;10.24;66.64;98549.00;1088513;54;20014;-81
2022/04/23 03:55:54;;;;;;;13.32;11.93;;;;;;;10.26;66.07;98558.47;1088615;54;20026;-81
2022/04/23 03:56:56;;;;;;;13.73;12.15;;;;;;;10.24;66.35;98554.34;1102215;39;20713;-82
2022/04/23 03:58:02;;;;;;;12.23;10.85;;;;;;;10.26;66.20;98552.31;1088570;54;20014;-82
2022/04/23 03:59:05;;;;;;;12.23;10.93;;;;;;;10.26;65.96;98555.81;1088493;54;20047;-81
2022/04/23 04:00:11;;;;;;;12.23;10.82;;;;;;;10.23;66.11;98552.66;1089114;46;20010;-81
2022/04/23 04:01:13;;;;;;;11.82;10.63;;;;;;;10.26;66.33;98557.66;1088556;54;20015;-83
2022/04/23 04:02:22;;;;;;;13.60;11.75;;;;;;;10.13;66.82;98559.09;1088498;54;20022;-80
2022/04/23 04:03:24;;;;;;;13.55;12.15;;;;;;;10.10;66.93;98555.94;1088478;54;20725;-81
2022/04/23 04:04:29;;;;;;;14.45;12.95;;;;;;;10.07;66.87;98549.13;1088521;54;20022;-80
2022/04/23 04:05:31;;;;;;;15.10;13.23;;;;;;;10.08;67.06;98547.28;1088491;54;20039;-82
2022/04/23 04:06:39;;;;;;;12.18;10.90;;;;;;;10.19;66.41;98549.53;1088514;46;20014;-83
2022/04/23 04:07:42;;;;;;;13.73;11.73;;;;;;;10.17;66.63;98545.38;1088378;54;20074;-81
2022/04/23 04:08:50;;;;;;;12.88;11.52;;;;;;;10.14;66.45;98546.56;1088377;54;20038;-82
2022/04/23 04:09:52;;;;;;;12.45;11.10;;;;;;;10.12;66.74;98546.75;1088504;54;20034;-81
2022/04/23 04:10:56;;;;;;;13.15;11.73;;;;;;;10.07;66.84;98543.78;1088584;54;20059;-81
2022/04/23 04:12:01;;;;;;;14.48;12.90;;;;;;;10.00;66.87;98548.19;1088510;54;20047;-82
2022/04/23 04:13:06;;;;;;;14.63;13.13;;;;;;;9.90;67.39;98547.59;1088510;54;20018;-81
2022/04/23 04:14:09;;;;;;;14.63;13.13;;;;;;;9.87;67.75;98547.94;1096134;39;20698;-81
2022/04/23 04:15:16;;;;;;;14.50;12.82;;;;;;;9.81;67.71;98557.47;1088587;54;20090;-81
2022/04/23 04:16:18;;;;;;;15.55;13.43;;;;;;;9.84;67.33;98546.44;1088509;54;20068;-83
2022/04/23 04:17:26;;;;;;;14.77;13.27;;;;;;;9.86;67.31;98547.09;1088527;54;20007;-82
2022/04/23 04:18:28;;;;;;;15.43;13.70;;;;;;;9.77;67.75;98545.50;1088507;54;20026;-81
2022/04/23 04:19:38;;;;;;;15.25;13.65;;;;;;;9.75;67.99;98545.66;1088552;54;20074;-80
2022/04/23 04:20:44;;;;;;;17.52;15.00;;;;;;;9.72;67.90;98548.69;1088748;46;20049;-81
2022/04/23 04:21:46;;;;;;;16.20;13.88;;;;;;;9.67;68.16;98541.22;1088494;54;20029;-81
2022/04/23 04:22:52;;;;;;;17.15;14.20;;;;;;;9.71;67.90;98539.03;1095098;39;20631;-81
2022/04/23 04:23:56;;;;;;;15.18;13.07;;;;;;;9.76;67.78;98536.66;1088405;54;20078;-81
2022/04/23 04:25:00;;;;;;;13.82;12.43;;;;;;;9.77;67.70;98537.50;1088316;54;20029;-83
2022/04/23 04:26:02;;;;;;;14.60;12.95;;;;;;;9.78;67.79;98537.31;1088445;54;20754;-81
2022/04/23 04:27:17;;;;;;;13.82;12.32;;;;;;;9.79;67.65;98543.47;1088481;54;20037;-82
2022/04/23 04:28:19;;;;;;;14.63;12.77;;;;;;;9.79;67.46;98538.97;1088554;54;20042;-80
2022/04/23 04:29:34;;;;;;;15.88;14.27;;;;;;;9.73;68.14;98537.00;1088564;54;20039;-82
2022/04/23 04:47:19;;;;;;;17.08;15.27;;;;;;;9.40;69.27;98528.38;1069729;54;20997;-79
2022/04/23 04:48:20;;;;;;;16.15;14.45;;;;;;;9.42;68.95;98529.84;1100399;46;20035;-80
2022/04/23 04:49:25;;;;;;;19.60;16.60;;;;;;;9.43;69.11;98536.00;1088229;54;20014;-80
2022/04/23 04:50:27;;;;;;;16.17;14.48;;;;;;;9.47;68.98;98532.81;1088187;54;20049;-79
2022/04/23 04:51:31;;;;;;;17.95;14.75;;;;;;;9.47;69.24;98540.00;1088101;47;20781;-78
2022/04/23 04:52:37;;;;;;;16.83;14.98;;;;;;;9.48;68.98;98539.81;1088067;54;20030;-78
2022/04/23 04:53:45;;;;;;;16.27;14.00;;;;;;;9.48;69.15;98534.47;1088282;54;20054;-79
2022/04/23 04:54:50;;;;;;;16.52;14.48;;;;;;;9.55;68.85;98531.09;1088262;54;20034;-78
2022/04/23 04:55:51;;;;;;;16.23;14.40;;;;;;;9.53;69.23;98536.63;1088334;54;20034;-80
2022/04/23 04:56:56;;;;;;;15.18;13.57;;;;;;;9.56;69.04;98530.09;1087985;54;20030;-79
2022/04/23 04:57:58;;;;;;;16.17;14.48;;;;;;;9.59;69.10;98532.41;1088007;54;20037;-79
2022/04/23 04:59:05;;;;;;;14.95;13.45;;;;;;;9.62;68.94;98535.56;1088311;54;20031;-79
2022/04/23 05:00:07;;;;;;;14.65;13.15;;;;;;;9.66;68.80;98536.88;1089293;46;20014;-80
2022/04/23 05:01:12;;;;;;;14.75;13.25;;;;;;;9.68;68.97;98542.03;1088191;54;20034;-79
2022/04/23 05:02:18;;;;;;;15.00;13.40;;;;;;;9.68;68.58;98537.50;1088290;54;20026;-80
2022/04/23 05:03:20;;;;;;;15.20;13.60;;;;;;;9.68;68.76;98542.84;1094081;46;20038;-80
2022/04/23 05:04:29;;;;;;;15.10;13.45;;;;;;;9.70;68.63;98540.03;1088283;54;20055;-80
2022/04/23 05:05:31;;;;;;;14.23;12.73;;;;;;;9.72;68.71;98546.03;1088277;54;20111;-80
2022/04/23 05:06:35;;;;;;;13.93;12.50;;;;;;;9.80;68.54;98548.66;1088136;54;20031;-80
2022/04/23 05:07:37;;;;;;;15.63;13.45;;;;;;;9.77;68.90;98551.66;1088294;54;20026;-80
2022/04/23 05:08:43;;;;;;;15.18;13.40;;;;;;;9.76;68.86;98549.16;1088307;54;20026;-81
2022/04/23 05:09:47;;;;;;;13.50;12.10;;;;;;;9.88;68.42;98545.06;1088416;54;20027;-81
2022/04/23 05:10:50;;;;;;;14.80;13.20;;;;;;;9.90;68.33;98551.06;1088207;54;20094;-77
2022/04/23 05:11:54;;;;;;;16.20;12.60;;;;;;;9.90;68.33;98548.41;1088074;54;20031;-78
2022/04/23 05:12:56;;;;;;;31.17;14.90;;;;;;;9.87;68.28;98553.25;1088056;54;20038;-77
2022/04/23 05:14:01;;;;;;;26.63;13.02;;;;;;;9.88;68.16;98550.41;1087623;54;20838;-78
2022/04/23 05:15:04;;;;;;;32.88;15.30;;;;;;;9.82;68.49;98548.44;1090893;39;20598;-78
2022/04/23 05:16:09;;;;;;;33.40;15.20;;;;;;;9.74;68.65;98554.66;1088109;54;20034;-77
2022/04/23 05:19:32;;;;;;;31.33;14.75;;;;;;;9.75;68.79;98559.00;1087885;54;20034;-82
2022/04/23 05:20:34;;;;;;;19.23;13.40;;;;;;;9.79;68.64;98563.00;1088253;54;20059;-79
2022/04/23 05:21:38;;;;;;;16.17;13.23;;;;;;;9.78;68.77;98566.66;1088086;54;20030;-79
2022/04/23 05:23:43;;;;;;;15.65;14.00;;;;;;;9.81;68.57;98565.47;1088049;54;20050;-77
2022/04/23 05:24:48;;;;;;;14.93;13.32;;;;;;;9.80;68.76;98561.13;1088066;54;20057;-78
2022/04/23 05:25:55;;;;;;;14.00;12.57;;;;;;;9.80;68.87;98570.00;1088112;54;20069;-84
2022/04/23 05:27:00;;;;;;;16.33;14.63;;;;;;;9.85;68.79;98566.78;1088249;54;20042;-79
2022/04/23 05:28:02;;;;;;;15.13;13.52;;;;;;;9.82;68.75;98562.63;1088247;54;20034;-81
2022/04/23 05:29:07;;;;;;;14.60;13.10;;;;;;;9.92;68.56;98572.25;1088107;54;20034;-81
2022/04/23 05:30:10;;;;;;;14.35;12.85;;;;;;;9.94;68.49;98568.41;1087950;54;20041;-78
2022/04/23 05:31:23;;;;;;;15.68;12.50;;;;;;;9.96;68.45;98569.06;1088196;54;20041;-82
2022/04/23 05:32:25;;;;;;;14.32;12.80;;;;;;;9.96;68.16;98560.22;1088317;54;20030;-79
2022/04/23 05:33:30;;;;;;;14.57;12.98;;;;;;;10.02;68.19;98564.84;1088455;54;20030;-79
2022/04/23 05:34:40;;;;;;;12.57;11.10;;;;;;;10.16;67.72;98568.56;1090625;46;20095;-81
2022/04/23 05:35:42;;;;;;;13.48;11.23;;;;;;;10.17;67.54;98566.75;1092033;46;20039;-83
2022/04/23 05:36:47;;;;;;;13.65;12.25;;;;;;;10.20;67.62;98564.53;1088640;54;20071;-78
2022/04/23 05:37:49;;;;;;;12.77;11.48;;;;;;;10.26;67.20;98558.47;1088626;54;20045;-80
2022/04/23 05:38:54;;;;;;;13.18;11.77;;;;;;;10.28;67.29;98564.47;1088590;54;20086;-79
2022/04/23 05:39:56;;;;;;;13.25;11.85;;;;;;;10.31;67.08;98568.63;1091449;46;20041;-80
2022/04/23 05:41:01;;;;;;;13.95;12.50;;;;;;;10.28;67.06;98561.81;1088598;54;20027;-79
2022/04/23 05:42:03;;;;;;;15.38;12.82;;;;;;;10.32;67.21;98561.47;1088511;54;20030;-80
2022/04/23 05:43:08;;;;;;;16.00;13.43;;;;;;;10.29;66.96;98568.00;1088467;54;20018;-78
2022/04/23 05:44:10;;;;;;;14.35;12.85;;;;;;;10.30;67.20;98565.13;1088580;54;20023;-82
2022/04/23 05:45:15;;;;;;;14.05;12.55;;;;;;;10.32;66.97;98567.63;1088660;54;20022;-80
2022/04/23 05:46:20;;;;;;;13.43;12.02;;;;;;;10.39;66.78;98565.91;1088563;54;20030;-80
2022/04/23 05:47:22;;;;;;;12.63;11.32;;;;;;;10.43;66.57;98559.22;1088271;54;20038;-79
2022/04/23 05:48:29;;;;;;;16.75;11.63;;;;;;;10.50;66.46;98559.34;1088562;54;20030;-80
2022/04/23 05:49:37;;;;;;;12.50;10.65;;;;;;;10.62;66.12;98565.06;1088652;54;20090;-81
2022/04/23 05:50:42;;;;;;;11.50;10.30;;;;;;;10.70;65.84;98572.19;1092638;46;20031;-80